Date,TemperatureHighF,TemperatureAvgF,TemperatureLowF,DewpointHighF,DewpointAvgF,DewpointLowF,HumidityHigh,HumidityAvg,HumidityLow,PressureMaxIn,PressureMinIn,WindSpeedMaxMPH,WindSpeedAvgMPH,GustSpeedMaxMPH,PrecipitationSumIn
2013-1-1,54,42,34,40,35,30,89,76,54,30.28,30.16,8,2,13,0.00
2013-1-2,53,38,26,40,33,24,96,82,56,30.27,30.16,5,1,9,0.00
2013-1-3,54,39,24,39,32,22,94,77,51,30.29,30.19,6,1,11,0.00
2013-1-4,55,40,27,41,34,25,93,77,54,30.33,30.20,4,0,8,0.00
2013-1-5,61,44,29,42,34,26,93,71,37,30.27,30.09,4,0,11,0.00
2013-1-6,55,50,44,46,42,37,92,76,57,30.17,30.08,14,6,21,0.01
2013-1-7,54,46,37,45,41,33,92,81,59,30.28,30.16,8,2,16,0.01
2013-1-8,56,42,30,44,37,28,95,83,62,30.25,30.16,4,0,9,0.00
2013-1-9,60,47,34,47,41,32,94,79,60,30.19,29.93,6,0,10,0.00
2013-1-10,51,43,35,45,37,31,94,81,51,30.18,30.02,21,4,27,0.02
2013-1-11,50,40,28,35,31,26,93,74,48,30.25,30.13,8,1,12,0.00
2013-1-12,49,38,27,34,30,25,93,76,51,30.26,30.14,9,1,12,0.00
2013-1-13,47,36,27,31,27,22,92,71,49,30.27,30.14,8,1,10,0.00
2013-1-14,47,36,26,27,24,20,84,64,40,30.42,30.22,8,1,13,0.00
2013-1-15,52,37,24,31,25,20,87,64,36,30.50,30.40,6,0,10,0.00
2013-1-16,56,40,27,35,29,23,89,67,39,30.46,30.28,3,0,9,0.00
2013-1-17,60,42,29,37,31,25,90,69,38,30.31,30.17,4,0,9,0.00
2013-1-18,63,44,30,40,34,27,91,68,37,30.25,30.14,6,1,9,0.00
2013-1-19,62,45,31,44,35,27,88,70,46,30.29,30.16,5,1,9,0.00
2013-1-20,61,45,31,44,36,28,93,72,48,30.27,30.13,7,1,10,0.00
2013-1-21,63,45,30,44,36,28,94,73,43,30.20,30.12,6,1,8,0.00
2013-1-22,64,47,31,44,37,29,91,71,41,30.15,30.03,4,0,8,0.00
2013-1-23,60,51,43,47,41,36,82,70,48,30.07,29.98,12,1,20,0.00
2013-1-24,57,53,49,54,50,46,95,89,73,30.19,30.03,7,2,10,0.24
2013-1-25,57,54,52,55,53,51,97,94,89,30.19,30.04,5,1,8,0.11
2013-1-26,60,56,52,57,54,50,100,95,86,30.05,29.95,11,1,16,0.13
2013-1-27,54,49,42,50,41,35,89,74,57,30.14,30.00,14,4,18,0.03
2013-1-28,54,44,34,39,36,32,92,74,52,30.27,30.12,8,1,15,0.01
2013-1-29,56,46,35,43,38,33,93,76,53,30.34,30.25,6,0,8,0.01
2013-1-30,60,48,36,45,40,34,94,76,50,30.37,30.27,5,0,11,0.01
2013-1-31,65,53,36,47,43,34,93,72,47,30.30,30.17,4,0,8,0.00